sensor_id;sensor_type;location;lat;lon;timestamp;P1;durP1;ratioP1;P2;durP2;ratioP2
2940;SDS011;1480;51.456;6.670;2022-11-13T00:00:38;28.67;;;23.60;;
2940;SDS011;1480;51.456;6.670;2022-11-13T00:03:24;28.03;;;24.00;;
2940;SDS011;1480;51.456;6.670;2022-11-13T00:06:12;36.83;;;25.60;;
2940;SDS011;1480;51.456;6.670;2022-11-13T00:08:58;28.93;;;24.53;;
2940;SDS011;1480;51.456;6.670;2022-11-13T00:11:44;29.80;;;26.20;;
2940;SDS011;1480;51.456;6.670;2022-11-13T00:14:30;27.97;;;23.20;;
2940;SDS011;1480;51.456;6.670;2022-11-13T00:17:17;26.53;;;21.47;;
2940;SDS011;1480;51.456;6.670;2022-11-13T00:20:02;29.17;;;23.43;;
2940;SDS011;1480;51.456;6.670;2022-11-13T00:22:48;27.77;;;22.87;;
2940;SDS011;1480;51.456;6.670;2022-11-13T00:25:34;31.57;;;23.40;;
2940;SDS011;1480;51.456;6.670;2022-11-13T00:28:19;27.20;;;21.47;;
2940;SDS011;1480;51.456;6.670;2022-11-13T00:31:05;30.40;;;24.33;;
2940;SDS011;1480;51.456;6.670;2022-11-13T00:33:57;27.80;;;24.30;;
2940;SDS011;1480;51.456;6.670;2022-11-13T00:36:43;29.00;;;23.77;;
2940;SDS011;1480;51.456;6.670;2022-11-13T00:39:28;38.80;;;30.00;;
2940;SDS011;1480;51.456;6.670;2022-11-13T00:42:14;32.20;;;25.30;;
2940;SDS011;1480;51.456;6.670;2022-11-13T00:44:59;31.73;;;26.40;;
2940;SDS011;1480;51.456;6.670;2022-11-13T00:47:45;32.33;;;25.63;;
2940;SDS011;1480;51.456;6.670;2022-11-13T00:50:32;33.37;;;24.13;;
2940;SDS011;1480;51.456;6.670;2022-11-13T00:53:17;32.33;;;26.87;;
2940;SDS011;1480;51.456;6.670;2022-11-13T00:56:04;28.77;;;22.90;;
2940;SDS011;1480;51.456;6.670;2022-11-13T00:58:49;27.30;;;21.90;;
2940;SDS011;1480;51.456;6.670;2022-11-13T01:01:35;32.00;;;24.70;;
2940;SDS011;1480;51.456;6.670;2022-11-13T01:04:20;29.23;;;23.20;;
2940;SDS011;1480;51.456;6.670;2022-11-13T01:07:07;32.03;;;26.93;;
2940;SDS011;1480;51.456;6.670;2022-11-13T01:09:53;34.07;;;26.90;;
2940;SDS011;1480;51.456;6.670;2022-11-13T01:12:38;36.60;;;29.23;;
2940;SDS011;1480;51.456;6.670;2022-11-13T01:15:24;36.53;;;28.87;;
2940;SDS011;1480;51.456;6.670;2022-11-13T01:18:10;41.80;;;31.10;;
2940;SDS011;1480;51.456;6.670;2022-11-13T01:21:00;38.17;;;29.00;;
2940;SDS011;1480;51.456;6.670;2022-11-13T01:23:48;39.00;;;29.10;;
2940;SDS011;1480;51.456;6.670;2022-11-13T01:26:33;38.00;;;28.57;;
2940;SDS011;1480;51.456;6.670;2022-11-13T01:29:19;38.07;;;27.30;;
2940;SDS011;1480;51.456;6.670;2022-11-13T01:32:05;40.20;;;29.63;;
2940;SDS011;1480;51.456;6.670;2022-11-13T01:34:50;32.57;;;25.17;;
2940;SDS011;1480;51.456;6.670;2022-11-13T01:37:36;36.07;;;27.10;;
2940;SDS011;1480;51.456;6.670;2022-11-13T01:40:23;33.80;;;25.90;;
2940;SDS011;1480;51.456;6.670;2022-11-13T01:43:19;36.07;;;27.97;;
2940;SDS011;1480;51.456;6.670;2022-11-13T01:46:11;35.17;;;27.70;;
2940;SDS011;1480;51.456;6.670;2022-11-13T01:49:03;37.10;;;27.00;;
2940;SDS011;1480;51.456;6.670;2022-11-13T01:52:02;37.43;;;27.53;;
2940;SDS011;1480;51.456;6.670;2022-11-13T01:54:49;35.50;;;29.10;;
2940;SDS011;1480;51.456;6.670;2022-11-13T01:57:38;37.77;;;28.00;;
2940;SDS011;1480;51.456;6.670;2022-11-13T02:00:25;33.40;;;24.73;;
2940;SDS011;1480;51.456;6.670;2022-11-13T02:03:10;32.77;;;26.07;;
2940;SDS011;1480;51.456;6.670;2022-11-13T02:05:56;30.60;;;24.17;;
2940;SDS011;1480;51.456;6.670;2022-11-13T02:08:42;30.90;;;23.57;;
2940;SDS011;1480;51.456;6.670;2022-11-13T02:11:28;28.80;;;22.33;;
2940;SDS011;1480;51.456;6.670;2022-11-13T02:14:15;28.00;;;22.63;;
2940;SDS011;1480;51.456;6.670;2022-11-13T02:17:03;33.10;;;22.43;;
2940;SDS011;1480;51.456;6.670;2022-11-13T02:19:53;30.53;;;22.13;;
2940;SDS011;1480;51.456;6.670;2022-11-13T02:22:43;26.87;;;21.03;;
2940;SDS011;1480;51.456;6.670;2022-11-13T02:25:36;29.67;;;23.30;;
2940;SDS011;1480;51.456;6.670;2022-11-13T02:28:23;26.47;;;20.37;;
2940;SDS011;1480;51.456;6.670;2022-11-13T02:31:09;24.70;;;19.90;;
2940;SDS011;1480;51.456;6.670;2022-11-13T02:33:55;25.03;;;19.77;;
2940;SDS011;1480;51.456;6.670;2022-11-13T02:36:41;26.17;;;19.93;;
2940;SDS011;1480;51.456;6.670;2022-11-13T02:39:27;21.30;;;16.83;;
2940;SDS011;1480;51.456;6.670;2022-11-13T02:42:14;22.80;;;18.07;;
2940;SDS011;1480;51.456;6.670;2022-11-13T02:44:59;22.60;;;16.17;;
2940;SDS011;1480;51.456;6.670;2022-11-13T02:47:45;17.63;;;15.17;;
2940;SDS011;1480;51.456;6.670;2022-11-13T02:50:30;18.80;;;15.07;;
2940;SDS011;1480;51.456;6.670;2022-11-13T02:53:16;17.77;;;13.97;;
2940;SDS011;1480;51.456;6.670;2022-11-13T02:56:02;13.97;;;11.97;;
2940;SDS011;1480;51.456;6.670;2022-11-13T02:58:49;18.20;;;12.97;;
2940;SDS011;1480;51.456;6.670;2022-11-13T03:01:34;17.00;;;13.33;;
2940;SDS011;1480;51.456;6.670;2022-11-13T03:04:19;19.80;;;14.23;;
2940;SDS011;1480;51.456;6.670;2022-11-13T03:07:05;18.07;;;13.07;;
2940;SDS011;1480;51.456;6.670;2022-11-13T03:09:50;14.20;;;11.93;;
2940;SDS011;1480;51.456;6.670;2022-11-13T03:12:36;16.53;;;11.90;;
2940;SDS011;1480;51.456;6.670;2022-11-13T03:15:24;15.40;;;12.03;;
2940;SDS011;1480;51.456;6.670;2022-11-13T03:18:10;15.60;;;10.90;;
2940;SDS011;1480;51.456;6.670;2022-11-13T03:20:55;11.40;;;9.80;;
2940;SDS011;1480;51.456;6.670;2022-11-13T03:23:41;17.63;;;10.60;;
2940;SDS011;1480;51.456;6.670;2022-11-13T03:26:28;14.40;;;11.50;;
2940;SDS011;1480;51.456;6.670;2022-11-13T03:29:14;11.83;;;10.07;;
2940;SDS011;1480;51.456;6.670;2022-11-13T03:32:01;12.60;;;10.17;;
2940;SDS011;1480;51.456;6.670;2022-11-13T03:34:46;12.87;;;10.97;;
2940;SDS011;1480;51.456;6.670;2022-11-13T03:37:32;14.57;;;10.73;;
2940;SDS011;1480;51.456;6.670;2022-11-13T03:40:18;11.37;;;8.80;;
2940;SDS011;1480;51.456;6.670;2022-11-13T03:43:03;12.83;;;9.50;;
2940;SDS011;1480;51.456;6.670;2022-11-13T03:45:49;11.27;;;9.00;;
2940;SDS011;1480;51.456;6.670;2022-11-13T03:48:36;10.03;;;8.77;;
2940;SDS011;1480;51.456;6.670;2022-11-13T03:51:21;10.70;;;9.27;;
2940;SDS011;1480;51.456;6.670;2022-11-13T03:54:07;11.17;;;9.20;;
2940;SDS011;1480;51.456;6.670;2022-11-13T03:56:52;12.40;;;9.10;;
2940;SDS011;1480;51.456;6.670;2022-11-13T03:59:38;11.67;;;9.17;;
2940;SDS011;1480;51.456;6.670;2022-11-13T04:02:23;12.10;;;10.80;;
2940;SDS011;1480;51.456;6.670;2022-11-13T04:05:10;15.27;;;9.80;;
2940;SDS011;1480;51.456;6.670;2022-11-13T04:07:56;18.10;;;9.90;;
2940;SDS011;1480;51.456;6.670;2022-11-13T04:10:42;13.00;;;10.07;;
2940;SDS011;1480;51.456;6.670;2022-11-13T04:13:27;12.97;;;10.23;;
2940;SDS011;1480;51.456;6.670;2022-11-13T04:16:13;13.50;;;10.83;;
2940;SDS011;1480;51.456;6.670;2022-11-13T04:18:59;13.77;;;10.90;;
2940;SDS011;1480;51.456;6.670;2022-11-13T04:21:45;16.03;;;12.40;;
2940;SDS011;1480;51.456;6.670;2022-11-13T04:24:31;15.10;;;11.93;;
2940;SDS011;1480;51.456;6.670;2022-11-13T04:27:16;16.77;;;12.50;;
2940;SDS011;1480;51.456;6.670;2022-11-13T04:30:02;14.40;;;12.10;;
2940;SDS011;1480;51.456;6.670;2022-11-13T04:32:49;16.00;;;12.47;;
2940;SDS011;1480;51.456;6.670;2022-11-13T04:35:34;14.20;;;11.87;;
2940;SDS011;1480;51.456;6.670;2022-11-13T04:38:21;13.47;;;11.90;;
2940;SDS011;1480;51.456;6.670;2022-11-13T04:41:07;13.47;;;10.83;;
2940;SDS011;1480;51.456;6.670;2022-11-13T04:44:11;14.03;;;12.47;;
2940;SDS011;1480;51.456;6.670;2022-11-13T04:46:57;13.87;;;12.37;;
2940;SDS011;1480;51.456;6.670;2022-11-13T04:49:42;15.60;;;12.13;;
2940;SDS011;1480;51.456;6.670;2022-11-13T04:52:28;14.33;;;12.43;;
2940;SDS011;1480;51.456;6.670;2022-11-13T04:55:15;14.73;;;11.67;;
2940;SDS011;1480;51.456;6.670;2022-11-13T04:58:00;14.60;;;11.73;;
2940;SDS011;1480;51.456;6.670;2022-11-13T05:00:46;14.67;;;12.30;;
2940;SDS011;1480;51.456;6.670;2022-11-13T05:03:32;15.50;;;12.40;;
2940;SDS011;1480;51.456;6.670;2022-11-13T05:06:17;14.23;;;11.60;;
2940;SDS011;1480;51.456;6.670;2022-11-13T05:09:03;13.60;;;11.67;;
2940;SDS011;1480;51.456;6.670;2022-11-13T05:11:49;17.23;;;11.87;;
2940;SDS011;1480;51.456;6.670;2022-11-13T05:14:35;13.70;;;11.13;;
2940;SDS011;1480;51.456;6.670;2022-11-13T05:17:21;19.07;;;11.50;;
2940;SDS011;1480;51.456;6.670;2022-11-13T05:20:07;13.83;;;11.53;;
2940;SDS011;1480;51.456;6.670;2022-11-13T05:22:53;18.50;;;12.80;;
2940;SDS011;1480;51.456;6.670;2022-11-13T05:25:38;14.80;;;12.30;;
2940;SDS011;1480;51.456;6.670;2022-11-13T05:28:25;13.80;;;11.10;;
2940;SDS011;1480;51.456;6.670;2022-11-13T05:31:12;12.57;;;11.27;;
2940;SDS011;1480;51.456;6.670;2022-11-13T05:33:58;12.93;;;10.33;;
2940;SDS011;1480;51.456;6.670;2022-11-13T05:36:44;15.33;;;12.47;;
2940;SDS011;1480;51.456;6.670;2022-11-13T05:39:30;15.23;;;11.50;;
2940;SDS011;1480;51.456;6.670;2022-11-13T05:42:15;14.17;;;10.97;;
2940;SDS011;1480;51.456;6.670;2022-11-13T05:45:03;12.53;;;9.73;;
2940;SDS011;1480;51.456;6.670;2022-11-13T05:47:48;12.20;;;10.87;;
2940;SDS011;1480;51.456;6.670;2022-11-13T05:50:34;13.33;;;10.30;;
2940;SDS011;1480;51.456;6.670;2022-11-13T05:53:19;13.80;;;10.00;;
2940;SDS011;1480;51.456;6.670;2022-11-13T05:56:06;14.57;;;10.77;;
2940;SDS011;1480;51.456;6.670;2022-11-13T05:58:53;14.40;;;10.57;;
2940;SDS011;1480;51.456;6.670;2022-11-13T06:01:41;14.10;;;10.53;;
2940;SDS011;1480;51.456;6.670;2022-11-13T06:04:26;13.83;;;10.23;;
2940;SDS011;1480;51.456;6.670;2022-11-13T06:07:12;12.43;;;11.13;;
2940;SDS011;1480;51.456;6.670;2022-11-13T06:09:57;12.40;;;9.80;;
2940;SDS011;1480;51.456;6.670;2022-11-13T06:12:43;13.27;;;10.33;;
2940;SDS011;1480;51.456;6.670;2022-11-13T06:15:28;14.67;;;9.57;;
2940;SDS011;1480;51.456;6.670;2022-11-13T06:18:19;12.73;;;8.80;;
2940;SDS011;1480;51.456;6.670;2022-11-13T06:21:06;13.70;;;9.73;;
2940;SDS011;1480;51.456;6.670;2022-11-13T06:23:53;12.20;;;10.00;;
2940;SDS011;1480;51.456;6.670;2022-11-13T06:26:38;11.87;;;8.70;;
2940;SDS011;1480;51.456;6.670;2022-11-13T06:29:24;10.83;;;8.00;;
2940;SDS011;1480;51.456;6.670;2022-11-13T06:32:09;10.80;;;8.77;;
2940;SDS011;1480;51.456;6.670;2022-11-13T06:34:56;13.90;;;9.33;;
2940;SDS011;1480;51.456;6.670;2022-11-13T06:37:41;12.90;;;9.10;;
2940;SDS011;1480;51.456;6.670;2022-11-13T06:40:27;14.40;;;11.60;;
2940;SDS011;1480;51.456;6.670;2022-11-13T06:43:13;12.60;;;10.13;;
2940;SDS011;1480;51.456;6.670;2022-11-13T06:46:02;12.20;;;9.40;;
2940;SDS011;1480;51.456;6.670;2022-11-13T06:48:48;11.77;;;9.90;;
2940;SDS011;1480;51.456;6.670;2022-11-13T06:51:35;13.20;;;9.20;;
2940;SDS011;1480;51.456;6.670;2022-11-13T06:54:21;11.83;;;9.43;;
2940;SDS011;1480;51.456;6.670;2022-11-13T06:57:07;9.90;;;8.37;;
2940;SDS011;1480;51.456;6.670;2022-11-13T06:59:52;13.37;;;9.50;;
2940;SDS011;1480;51.456;6.670;2022-11-13T07:02:38;12.23;;;9.57;;
2940;SDS011;1480;51.456;6.670;2022-11-13T07:05:23;13.90;;;8.90;;
2940;SDS011;1480;51.456;6.670;2022-11-13T07:08:10;14.47;;;10.40;;
2940;SDS011;1480;51.456;6.670;2022-11-13T07:10:56;14.63;;;10.43;;
2940;SDS011;1480;51.456;6.670;2022-11-13T07:13:42;12.10;;;9.20;;
2940;SDS011;1480;51.456;6.670;2022-11-13T07:16:28;13.30;;;9.33;;
2940;SDS011;1480;51.456;6.670;2022-11-13T07:19:13;13.33;;;10.03;;
2940;SDS011;1480;51.456;6.670;2022-11-13T07:21:59;11.30;;;9.40;;
2940;SDS011;1480;51.456;6.670;2022-11-13T07:24:46;10.90;;;9.27;;
2940;SDS011;1480;51.456;6.670;2022-11-13T07:27:31;11.80;;;8.90;;
2940;SDS011;1480;51.456;6.670;2022-11-13T07:30:17;11.23;;;9.30;;
2940;SDS011;1480;51.456;6.670;2022-11-13T07:33:02;11.00;;;9.90;;
2940;SDS011;1480;51.456;6.670;2022-11-13T07:35:48;11.07;;;9.90;;
2940;SDS011;1480;51.456;6.670;2022-11-13T07:38:34;11.40;;;8.97;;
2940;SDS011;1480;51.456;6.670;2022-11-13T07:41:21;16.17;;;10.20;;
2940;SDS011;1480;51.456;6.670;2022-11-13T07:44:06;11.27;;;9.50;;
2940;SDS011;1480;51.456;6.670;2022-11-13T07:46:52;10.17;;;8.70;;
2940;SDS011;1480;51.456;6.670;2022-11-13T07:49:37;12.50;;;9.90;;
2940;SDS011;1480;51.456;6.670;2022-11-13T07:52:23;10.00;;;8.97;;
2940;SDS011;1480;51.456;6.670;2022-11-13T07:55:08;12.53;;;10.07;;
2940;SDS011;1480;51.456;6.670;2022-11-13T07:57:56;12.37;;;9.13;;
2940;SDS011;1480;51.456;6.670;2022-11-13T08:00:41;12.63;;;9.73;;
2940;SDS011;1480;51.456;6.670;2022-11-13T08:03:27;10.63;;;8.50;;
2940;SDS011;1480;51.456;6.670;2022-11-13T08:06:13;10.57;;;8.50;;
2940;SDS011;1480;51.456;6.670;2022-11-13T08:08:58;12.80;;;9.13;;
2940;SDS011;1480;51.456;6.670;2022-11-13T08:11:44;9.47;;;7.43;;
2940;SDS011;1480;51.456;6.670;2022-11-13T08:14:31;10.07;;;7.97;;
2940;SDS011;1480;51.456;6.670;2022-11-13T08:17:16;11.23;;;7.80;;
2940;SDS011;1480;51.456;6.670;2022-11-13T08:20:02;8.67;;;7.40;;
2940;SDS011;1480;51.456;6.670;2022-11-13T08:22:49;9.70;;;8.20;;
2940;SDS011;1480;51.456;6.670;2022-11-13T08:25:35;15.40;;;7.97;;
2940;SDS011;1480;51.456;6.670;2022-11-13T08:28:20;11.73;;;7.23;;
2940;SDS011;1480;51.456;6.670;2022-11-13T08:31:09;7.47;;;6.70;;
2940;SDS011;1480;51.456;6.670;2022-11-13T08:33:55;7.97;;;6.80;;
2940;SDS011;1480;51.456;6.670;2022-11-13T08:36:41;8.30;;;5.90;;
2940;SDS011;1480;51.456;6.670;2022-11-13T08:39:26;10.70;;;7.57;;
2940;SDS011;1480;51.456;6.670;2022-11-13T08:42:12;8.93;;;6.77;;
2940;SDS011;1480;51.456;6.670;2022-11-13T08:44:58;10.87;;;6.10;;
2940;SDS011;1480;51.456;6.670;2022-11-13T08:47:44;7.80;;;6.10;;
2940;SDS011;1480;51.456;6.670;2022-11-13T08:50:30;10.67;;;6.40;;
2940;SDS011;1480;51.456;6.670;2022-11-13T08:53:18;6.77;;;5.40;;
2940;SDS011;1480;51.456;6.670;2022-11-13T08:56:04;8.63;;;5.90;;
2940;SDS011;1480;51.456;6.670;2022-11-13T08:58:49;10.47;;;6.30;;
2940;SDS011;1480;51.456;6.670;2022-11-13T09:01:35;8.00;;;5.77;;
2940;SDS011;1480;51.456;6.670;2022-11-13T09:04:22;11.00;;;6.30;;
2940;SDS011;1480;51.456;6.670;2022-11-13T09:07:08;7.17;;;5.90;;
2940;SDS011;1480;51.456;6.670;2022-11-13T09:09:54;9.37;;;5.37;;
2940;SDS011;1480;51.456;6.670;2022-11-13T09:12:39;6.30;;;4.93;;
2940;SDS011;1480;51.456;6.670;2022-11-13T09:15:25;7.20;;;5.40;;
2940;SDS011;1480;51.456;6.670;2022-11-13T09:18:11;7.37;;;5.33;;
2940;SDS011;1480;51.456;6.670;2022-11-13T09:21:00;7.90;;;5.80;;
2940;SDS011;1480;51.456;6.670;2022-11-13T09:23:46;8.20;;;6.37;;
2940;SDS011;1480;51.456;6.670;2022-11-13T09:26:33;7.73;;;5.30;;
2940;SDS011;1480;51.456;6.670;2022-11-13T09:29:19;8.63;;;5.40;;
2940;SDS011;1480;51.456;6.670;2022-11-13T09:32:06;9.20;;;5.90;;
2940;SDS011;1480;51.456;6.670;2022-11-13T09:34:51;12.00;;;5.90;;
2940;SDS011;1480;51.456;6.670;2022-11-13T09:37:38;6.23;;;5.63;;
2940;SDS011;1480;51.456;6.670;2022-11-13T09:40:26;7.87;;;5.90;;
2940;SDS011;1480;51.456;6.670;2022-11-13T09:43:24;11.20;;;7.50;;
2940;SDS011;1480;51.456;6.670;2022-11-13T09:46:15;7.77;;;6.17;;
2940;SDS011;1480;51.456;6.670;2022-11-13T09:49:08;5.67;;;5.07;;
2940;SDS011;1480;51.456;6.670;2022-11-13T09:51:59;6.30;;;4.67;;
2940;SDS011;1480;51.456;6.670;2022-11-13T09:54:50;5.13;;;4.30;;
2940;SDS011;1480;51.456;6.670;2022-11-13T09:57:37;6.57;;;4.83;;
2940;SDS011;1480;51.456;6.670;2022-11-13T10:00:26;5.90;;;4.20;;
2940;SDS011;1480;51.456;6.670;2022-11-13T10:03:17;5.90;;;4.53;;
2940;SDS011;1480;51.456;6.670;2022-11-13T10:06:12;4.90;;;3.60;;
2940;SDS011;1480;51.456;6.670;2022-11-13T10:09:08;6.23;;;4.00;;
2940;SDS011;1480;51.456;6.670;2022-11-13T10:12:02;7.83;;;5.10;;
2940;SDS011;1480;51.456;6.670;2022-11-13T10:14:51;5.67;;;4.73;;
2940;SDS011;1480;51.456;6.670;2022-11-13T10:17:41;5.70;;;4.47;;
2940;SDS011;1480;51.456;6.670;2022-11-13T10:20:33;7.90;;;5.60;;
2940;SDS011;1480;51.456;6.670;2022-11-13T10:23:23;8.70;;;6.90;;
2940;SDS011;1480;51.456;6.670;2022-11-13T10:26:14;12.80;;;9.63;;
2940;SDS011;1480;51.456;6.670;2022-11-13T10:29:07;8.37;;;6.57;;
2940;SDS011;1480;51.456;6.670;2022-11-13T10:31:54;9.00;;;7.00;;
2940;SDS011;1480;51.456;6.670;2022-11-13T10:34:42;7.20;;;5.40;;
2940;SDS011;1480;51.456;6.670;2022-11-13T10:37:38;9.20;;;6.00;;
2940;SDS011;1480;51.456;6.670;2022-11-13T10:40:32;7.63;;;5.50;;
2940;SDS011;1480;51.456;6.670;2022-11-13T10:43:20;13.30;;;6.97;;
2940;SDS011;1480;51.456;6.670;2022-11-13T10:46:16;7.87;;;5.57;;
2940;SDS011;1480;51.456;6.670;2022-11-13T10:49:12;10.83;;;6.60;;
2940;SDS011;1480;51.456;6.670;2022-11-13T10:52:01;10.33;;;7.17;;
2940;SDS011;1480;51.456;6.670;2022-11-13T10:54:47;10.13;;;6.80;;
2940;SDS011;1480;51.456;6.670;2022-11-13T10:57:33;10.53;;;6.93;;
2940;SDS011;1480;51.456;6.670;2022-11-13T11:00:20;9.30;;;5.10;;
2940;SDS011;1480;51.456;6.670;2022-11-13T11:03:11;6.83;;;4.87;;
2940;SDS011;1480;51.456;6.670;2022-11-13T11:05:58;10.40;;;7.17;;
2940;SDS011;1480;51.456;6.670;2022-11-13T11:08:46;7.03;;;5.40;;
2940;SDS011;1480;51.456;6.670;2022-11-13T11:11:31;5.43;;;4.07;;
2940;SDS011;1480;51.456;6.670;2022-11-13T11:14:37;5.43;;;4.23;;
2940;SDS011;1480;51.456;6.670;2022-11-13T11:17:28;6.97;;;5.23;;
2940;SDS011;1480;51.456;6.670;2022-11-13T11:20:24;10.90;;;5.50;;
2940;SDS011;1480;51.456;6.670;2022-11-13T11:23:24;9.63;;;6.30;;
2940;SDS011;1480;51.456;6.670;2022-11-13T11:26:17;9.43;;;5.70;;
2940;SDS011;1480;51.456;6.670;2022-11-13T11:29:10;7.30;;;5.07;;
2940;SDS011;1480;51.456;6.670;2022-11-13T11:32:00;9.63;;;6.40;;
2940;SDS011;1480;51.456;6.670;2022-11-13T11:34:55;9.63;;;7.47;;
2940;SDS011;1480;51.456;6.670;2022-11-13T11:37:52;10.57;;;6.40;;
2940;SDS011;1480;51.456;6.670;2022-11-13T11:40:45;12.37;;;6.83;;
2940;SDS011;1480;51.456;6.670;2022-11-13T11:43:37;7.63;;;5.90;;
2940;SDS011;1480;51.456;6.670;2022-11-13T11:46:26;8.50;;;6.20;;
2940;SDS011;1480;51.456;6.670;2022-11-13T11:49:12;14.03;;;6.80;;
2940;SDS011;1480;51.456;6.670;2022-11-13T11:52:01;11.30;;;7.63;;
2940;SDS011;1480;51.456;6.670;2022-11-13T11:55:01;10.17;;;7.07;;
2940;SDS011;1480;51.456;6.670;2022-11-13T11:57:58;10.10;;;7.80;;
2940;SDS011;1480;51.456;6.670;2022-11-13T12:00:50;7.37;;;6.63;;
2940;SDS011;1480;51.456;6.670;2022-11-13T12:03:47;10.83;;;6.40;;
2940;SDS011;1480;51.456;6.670;2022-11-13T12:06:48;10.00;;;6.63;;
2940;SDS011;1480;51.456;6.670;2022-11-13T12:09:42;8.37;;;6.40;;
2940;SDS011;1480;51.456;6.670;2022-11-13T12:12:45;11.20;;;6.77;;
2940;SDS011;1480;51.456;6.670;2022-11-13T12:15:44;12.20;;;6.77;;
2940;SDS011;1480;51.456;6.670;2022-11-13T12:18:36;7.47;;;6.53;;
2940;SDS011;1480;51.456;6.670;2022-11-13T12:21:32;6.33;;;5.30;;
2940;SDS011;1480;51.456;6.670;2022-11-13T12:24:32;9.03;;;5.70;;
2940;SDS011;1480;51.456;6.670;2022-11-13T12:27:40;7.77;;;6.03;;
2940;SDS011;1480;51.456;6.670;2022-11-13T12:30:35;6.77;;;5.07;;
2940;SDS011;1480;51.456;6.670;2022-11-13T12:33:29;9.80;;;5.60;;
2940;SDS011;1480;51.456;6.670;2022-11-13T12:36:20;8.27;;;5.23;;
2940;SDS011;1480;51.456;6.670;2022-11-13T12:39:11;7.80;;;5.33;;
2940;SDS011;1480;51.456;6.670;2022-11-13T12:42:12;5.33;;;4.70;;
2940;SDS011;1480;51.456;6.670;2022-11-13T12:45:06;7.27;;;5.70;;
2940;SDS011;1480;51.456;6.670;2022-11-13T12:48:06;7.80;;;6.27;;
2940;SDS011;1480;51.456;6.670;2022-11-13T12:50:55;11.17;;;7.07;;
2940;SDS011;1480;51.456;6.670;2022-11-13T12:53:44;9.73;;;7.67;;
2940;SDS011;1480;51.456;6.670;2022-11-13T12:56:31;12.83;;;7.73;;
2940;SDS011;1480;51.456;6.670;2022-11-13T12:59:29;11.83;;;9.23;;
2940;SDS011;1480;51.456;6.670;2022-11-13T13:02:30;17.40;;;9.60;;
2940;SDS011;1480;51.456;6.670;2022-11-13T13:05:30;24.33;;;16.10;;
2940;SDS011;1480;51.456;6.670;2022-11-13T13:11:35;19.13;;;13.23;;
2940;SDS011;1480;51.456;6.670;2022-11-13T13:14:32;14.10;;;9.03;;
2940;SDS011;1480;51.456;6.670;2022-11-13T13:17:28;25.83;;;17.60;;
2940;SDS011;1480;51.456;6.670;2022-11-13T13:20:27;10.50;;;7.47;;
2940;SDS011;1480;51.456;6.670;2022-11-13T13:23:24;10.73;;;7.30;;
2940;SDS011;1480;51.456;6.670;2022-11-13T13:26:16;13.57;;;9.33;;
2940;SDS011;1480;51.456;6.670;2022-11-13T13:29:07;12.20;;;7.60;;
2940;SDS011;1480;51.456;6.670;2022-11-13T13:32:10;12.07;;;10.77;;
2940;SDS011;1480;51.456;6.670;2022-11-13T13:35:02;13.90;;;9.90;;
2940;SDS011;1480;51.456;6.670;2022-11-13T13:37:55;8.10;;;7.03;;
2940;SDS011;1480;51.456;6.670;2022-11-13T13:40:55;12.40;;;8.30;;
2940;SDS011;1480;51.456;6.670;2022-11-13T13:43:58;10.30;;;8.13;;
2940;SDS011;1480;51.456;6.670;2022-11-13T13:47:09;14.27;;;11.63;;
2940;SDS011;1480;51.456;6.670;2022-11-13T13:50:03;12.67;;;10.20;;
2940;SDS011;1480;51.456;6.670;2022-11-13T13:52:49;11.63;;;8.00;;
2940;SDS011;1480;51.456;6.670;2022-11-13T13:55:37;7.57;;;6.43;;
2940;SDS011;1480;51.456;6.670;2022-11-13T13:58:28;8.43;;;6.90;;
2940;SDS011;1480;51.456;6.670;2022-11-13T14:01:24;9.80;;;7.20;;
2940;SDS011;1480;51.456;6.670;2022-11-13T14:04:12;8.60;;;7.00;;
2940;SDS011;1480;51.456;6.670;2022-11-13T14:07:01;10.30;;;7.10;;
2940;SDS011;1480;51.456;6.670;2022-11-13T14:09:46;9.60;;;6.90;;
2940;SDS011;1480;51.456;6.670;2022-11-13T14:12:34;9.60;;;7.20;;
2940;SDS011;1480;51.456;6.670;2022-11-13T14:15:21;9.97;;;6.97;;
2940;SDS011;1480;51.456;6.670;2022-11-13T14:18:10;7.27;;;6.57;;
2940;SDS011;1480;51.456;6.670;2022-11-13T14:20:57;7.00;;;5.47;;
2940;SDS011;1480;51.456;6.670;2022-11-13T14:23:44;9.43;;;6.30;;
2940;SDS011;1480;51.456;6.670;2022-11-13T14:26:32;8.30;;;7.10;;
2940;SDS011;1480;51.456;6.670;2022-11-13T14:29:25;10.10;;;6.97;;
2940;SDS011;1480;51.456;6.670;2022-11-13T14:32:17;9.00;;;6.13;;
2940;SDS011;1480;51.456;6.670;2022-11-13T14:35:05;10.37;;;7.00;;
2940;SDS011;1480;51.456;6.670;2022-11-13T14:37:52;9.73;;;7.10;;
2940;SDS011;1480;51.456;6.670;2022-11-13T14:40:38;8.30;;;6.90;;
2940;SDS011;1480;51.456;6.670;2022-11-13T14:43:30;7.60;;;6.80;;
2940;SDS011;1480;51.456;6.670;2022-11-13T14:46:28;7.83;;;6.40;;
2940;SDS011;1480;51.456;6.670;2022-11-13T14:49:24;9.50;;;7.00;;
2940;SDS011;1480;51.456;6.670;2022-11-13T14:52:18;8.30;;;6.30;;
2940;SDS011;1480;51.456;6.670;2022-11-13T14:55:06;8.00;;;5.50;;
2940;SDS011;1480;51.456;6.670;2022-11-13T14:58:10;7.27;;;5.40;;
2940;SDS011;1480;51.456;6.670;2022-11-13T15:00:56;6.00;;;5.30;;
2940;SDS011;1480;51.456;6.670;2022-11-13T15:03:44;6.90;;;5.30;;
2940;SDS011;1480;51.456;6.670;2022-11-13T15:06:34;9.30;;;6.20;;
2940;SDS011;1480;51.456;6.670;2022-11-13T15:09:22;8.00;;;4.97;;
2940;SDS011;1480;51.456;6.670;2022-11-13T15:12:09;5.43;;;4.47;;
2940;SDS011;1480;51.456;6.670;2022-11-13T15:14:54;5.87;;;4.53;;
2940;SDS011;1480;51.456;6.670;2022-11-13T15:17:40;4.20;;;3.80;;
2940;SDS011;1480;51.456;6.670;2022-11-13T15:20:28;5.00;;;4.37;;
2940;SDS011;1480;51.456;6.670;2022-11-13T15:23:15;6.77;;;4.10;;
2940;SDS011;1480;51.456;6.670;2022-11-13T15:26:00;5.37;;;4.37;;
2940;SDS011;1480;51.456;6.670;2022-11-13T15:28:46;6.73;;;4.83;;
2940;SDS011;1480;51.456;6.670;2022-11-13T15:31:32;6.27;;;4.80;;
2940;SDS011;1480;51.456;6.670;2022-11-13T15:34:19;7.17;;;4.83;;
2940;SDS011;1480;51.456;6.670;2022-11-13T15:37:10;10.40;;;4.93;;
2940;SDS011;1480;51.456;6.670;2022-11-13T15:39:56;6.87;;;4.70;;
2940;SDS011;1480;51.456;6.670;2022-11-13T15:42:42;5.53;;;4.30;;
2940;SDS011;1480;51.456;6.670;2022-11-13T15:45:28;7.83;;;5.00;;
2940;SDS011;1480;51.456;6.670;2022-11-13T15:48:13;7.20;;;5.20;;
2940;SDS011;1480;51.456;6.670;2022-11-13T15:50:59;6.40;;;5.70;;
2940;SDS011;1480;51.456;6.670;2022-11-13T15:53:46;6.03;;;5.07;;
2940;SDS011;1480;51.456;6.670;2022-11-13T15:56:33;6.67;;;4.90;;
2940;SDS011;1480;51.456;6.670;2022-11-13T15:59:19;7.57;;;5.30;;
2940;SDS011;1480;51.456;6.670;2022-11-13T16:02:05;7.80;;;5.77;;
2940;SDS011;1480;51.456;6.670;2022-11-13T16:04:50;7.60;;;5.27;;
2940;SDS011;1480;51.456;6.670;2022-11-13T16:07:36;6.60;;;5.03;;
2940;SDS011;1480;51.456;6.670;2022-11-13T16:10:23;6.13;;;4.77;;
2940;SDS011;1480;51.456;6.670;2022-11-13T16:13:08;5.70;;;5.03;;
2940;SDS011;1480;51.456;6.670;2022-11-13T16:15:54;6.10;;;5.10;;
2940;SDS011;1480;51.456;6.670;2022-11-13T16:18:40;9.03;;;5.00;;
2940;SDS011;1480;51.456;6.670;2022-11-13T16:21:26;7.13;;;5.37;;
2940;SDS011;1480;51.456;6.670;2022-11-13T16:24:11;5.83;;;4.60;;
2940;SDS011;1480;51.456;6.670;2022-11-13T16:26:58;6.60;;;4.87;;
2940;SDS011;1480;51.456;6.670;2022-11-13T16:29:43;7.10;;;5.17;;
2940;SDS011;1480;51.456;6.670;2022-11-13T16:32:29;7.60;;;6.30;;
2940;SDS011;1480;51.456;6.670;2022-11-13T16:35:15;9.83;;;6.10;;
2940;SDS011;1480;51.456;6.670;2022-11-13T16:38:01;8.37;;;6.60;;
2940;SDS011;1480;51.456;6.670;2022-11-13T16:40:47;8.40;;;5.30;;
2940;SDS011;1480;51.456;6.670;2022-11-13T16:43:35;7.67;;;5.70;;
2940;SDS011;1480;51.456;6.670;2022-11-13T16:46:23;9.93;;;7.07;;
2940;SDS011;1480;51.456;6.670;2022-11-13T16:49:11;6.93;;;5.80;;
2940;SDS011;1480;51.456;6.670;2022-11-13T16:52:01;9.73;;;7.17;;
2940;SDS011;1480;51.456;6.670;2022-11-13T16:54:47;11.33;;;7.77;;
2940;SDS011;1480;51.456;6.670;2022-11-13T16:57:34;9.10;;;6.90;;
2940;SDS011;1480;51.456;6.670;2022-11-13T17:00:21;8.00;;;6.90;;
2940;SDS011;1480;51.456;6.670;2022-11-13T17:03:08;11.00;;;7.07;;
2940;SDS011;1480;51.456;6.670;2022-11-13T17:05:54;9.90;;;7.07;;
2940;SDS011;1480;51.456;6.670;2022-11-13T17:08:39;9.30;;;7.20;;
2940;SDS011;1480;51.456;6.670;2022-11-13T17:11:25;8.80;;;7.60;;